Time;durP1;ratioP1;P1;durP2;ratioP2;P2;SDS_P1;SDS_P2;PMS_P1;PMS_P2;Temp;Humidity;BMP_temperature;BMP_pressure;BME280_temperature;BME280_humidity;BME280_pressure;Samples;Min_cycle;Max_cycle;Signal;HPM_P1;HPM_P2
2021/12/18 00:01:11;;;;;;;25.03;10.03;;;;;;;;;;5025718;28;20261;-80
2021/12/18 00:03:38;;;;;;;26.77;10.80;;;;;;;;;;5035470;28;20670;-80
2021/12/18 00:06:05;;;;;;;23.80;11.60;;;;;;;;;;5035514;28;20234;-80
2021/12/18 00:08:32;;;;;;;38.93;12.53;;;;;;;;;;5035148;28;20549;-80
2021/12/18 00:11:00;;;;;;;28.80;11.33;;;;;;;;;;5035498;28;20230;-80
2021/12/18 00:13:28;;;;;;;43.70;12.20;;;;;;;;;;5035058;28;20697;-80
2021/12/18 00:15:55;;;;;;;55.73;13.57;;;;;;;;;;5035675;28;20231;-80
2021/12/18 00:18:22;;;;;;;45.93;13.10;;;;;;;;;;5036149;28;20218;-80
2021/12/18 00:20:50;;;;;;;66.03;13.87;;;;;;;;;;5035252;28;20305;-80
2021/12/18 00:23:17;;;;;;;38.07;12.53;;;;;;;;;;5035635;28;20214;-80
2021/12/18 00:25:44;;;;;;;52.73;14.93;;;;;;;;;;5031414;28;20246;-80
2021/12/18 00:28:13;;;;;;;60.10;13.23;;;;;;;;;;5031584;28;20647;-80
2021/12/18 00:30:40;;;;;;;49.80;13.70;;;;;;;;;;5031512;28;20234;-80
2021/12/18 00:33:08;;;;;;;66.40;15.00;;;;;;;;;;5032510;28;20210;-81
2021/12/18 00:35:35;;;;;;;34.80;11.80;;;;;;;;;;5032363;28;20242;-81
2021/12/18 00:38:03;;;;;;;38.20;11.47;;;;;;;;;;5033574;28;20297;-81
2021/12/18 00:40:43;;;;;;;44.17;10.70;;;;;;;;;;5033482;28;20332;-81
2021/12/18 00:43:22;;;;;;;25.70;9.93;;;;;;;;;;5036588;28;20210;-81
2021/12/18 00:45:50;;;;;;;24.07;10.47;;;;;;;;;;5034612;28;20329;-81
2021/12/18 00:48:18;;;;;;;34.63;10.67;;;;;;;;;;5037125;28;20223;-81
2021/12/18 00:50:45;;;;;;;31.17;10.63;;;;;;;;;;5035312;28;20242;-81
2021/12/18 00:53:12;;;;;;;33.00;11.57;;;;;;;;;;5034592;28;20217;-80
2021/12/18 00:55:39;;;;;;;42.70;12.07;;;;;;;;;;5035006;28;20249;-81
2021/12/18 00:58:07;;;;;;;20.00;9.97;;;;;;;;;;5040278;28;20217;-81
2021/12/18 01:00:34;;;;;;;95.90;15.43;;;;;;;;;;5034592;28;20730;-81
2021/12/18 01:03:04;;;;;;;45.57;12.83;;;;;;;;;;5019935;28;20215;-81
2021/12/18 01:05:32;;;;;;;58.17;14.33;;;;;;;;;;5016113;28;20305;-81
2021/12/18 01:07:59;;;;;;;73.43;14.30;;;;;;;;;;5018797;28;20206;-82
2021/12/18 01:10:40;;;;;;;72.80;16.30;;;;;;;;;;5018890;28;20271;-81
2021/12/18 01:13:10;;;;;;;84.73;14.97;;;;;;;;;;5026538;28;20196;-81
2021/12/18 01:15:43;;;;;;;70.90;15.73;;;;;;;;;;5024877;28;20258;-81
2021/12/18 01:23:41;;;;;;;57.20;13.83;;;;;;;;;;5018227;28;20233;-82
2021/12/18 01:26:09;;;;;;;63.50;14.37;;;;;;;;;;5019202;28;20238;-82
2021/12/18 01:28:36;;;;;;;55.03;14.73;;;;;;;;;;5021553;28;20208;-82
2021/12/18 01:31:04;;;;;;;46.17;13.07;;;;;;;;;;5020777;28;20223;-82
2021/12/18 01:33:32;;;;;;;46.73;13.70;;;;;;;;;;5019256;28;20633;-81
2021/12/18 01:36:01;;;;;;;43.23;12.73;;;;;;;;;;5018653;28;20718;-81
2021/12/18 01:38:29;;;;;;;37.60;12.63;;;;;;;;;;5019730;28;20239;-81
2021/12/18 01:40:57;;;;;;;54.23;14.03;;;;;;;;;;5018671;28;20211;-81
2021/12/18 01:51:58;;;;;;;31.43;12.93;;;;;;;;;;5018100;28;20636;-81
2021/12/18 01:54:25;;;;;;;25.47;11.87;;;;;;;;;;5017359;28;20223;-81
2021/12/18 01:56:52;;;;;;;23.40;11.07;;;;;;;;;;5018087;28;20234;-81
2021/12/18 01:59:19;;;;;;;22.10;10.53;;;;;;;;;;5020840;28;20226;-82
2021/12/18 02:01:46;;;;;;;20.10;10.23;;;;;;;;;;5026818;28;20210;-82
2021/12/18 02:04:14;;;;;;;19.27;11.53;;;;;;;;;;5017604;28;20231;-82
2021/12/18 02:06:41;;;;;;;29.70;11.43;;;;;;;;;;5014950;28;20239;-82
2021/12/18 02:09:09;;;;;;;31.63;12.10;;;;;;;;;;5031764;28;20227;-81
2021/12/18 02:11:38;;;;;;;24.73;11.60;;;;;;;;;;5038895;28;20273;-81
2021/12/18 02:14:23;;;;;;;38.90;12.33;;;;;;;;;;5018582;28;20251;-81
2021/12/18 02:19:51;;;;;;;45.37;12.30;;;;;;;;;;5020285;28;20242;-81
2021/12/18 02:22:20;;;;;;;38.03;12.83;;;;;;;;;;5020061;28;20212;-82
2021/12/18 02:24:48;;;;;;;25.53;11.23;;;;;;;;;;5029219;28;20666;-80
2021/12/18 02:27:15;;;;;;;30.97;11.53;;;;;;;;;;5038913;28;20234;-80
2021/12/18 02:29:43;;;;;;;33.27;12.00;;;;;;;;;;5039678;28;20258;-81
2021/12/18 02:32:11;;;;;;;30.20;10.77;;;;;;;;;;5040371;28;20234;-81
2021/12/18 02:34:39;;;;;;;52.70;13.97;;;;;;;;;;5038979;28;20726;-81
2021/12/18 02:37:09;;;;;;;43.07;12.10;;;;;;;;;;5039254;28;20273;-82
2021/12/18 02:39:55;;;;;;;26.37;11.97;;;;;;;;;;5039040;28;20261;-81
2021/12/18 02:42:22;;;;;;;29.97;11.83;;;;;;;;;;5039229;28;20206;-81
2021/12/18 02:44:50;;;;;;;51.40;13.20;;;;;;;;;;5037806;28;20300;-81
2021/12/18 02:47:17;;;;;;;31.97;11.07;;;;;;;;;;5042109;28;20246;-81
2021/12/18 02:49:44;;;;;;;40.07;12.43;;;;;;;;;;5039835;28;20234;-81
2021/12/18 02:52:12;;;;;;;52.20;12.53;;;;;;;;;;5039583;28;20254;-81
2021/12/18 02:54:41;;;;;;;62.63;15.07;;;;;;;;;;5038724;28;20254;-81
2021/12/18 02:57:08;;;;;;;37.73;12.87;;;;;;;;;;5038508;28;20234;-81
2021/12/18 02:59:45;;;;;;;67.87;20.40;;;;;;;;;;5038537;28;20241;-81
2021/12/18 03:02:13;;;;;;;35.90;11.67;;;;;;;;;;5019713;28;20207;-80
2021/12/18 03:04:43;;;;;;;42.43;13.30;;;;;;;;;;5017132;28;20235;-81
2021/12/18 03:07:12;;;;;;;41.00;12.63;;;;;;;;;;5067583;23;20236;-79
2021/12/18 03:23:38;;;;;;;51.67;12.20;;;;;;;;;;5052938;28;20741;-79
2021/12/18 03:26:07;;;;;;;81.50;14.40;;;;;;;;;;5053185;28;20193;-79
2021/12/18 03:28:34;;;;;;;55.37;12.87;;;;;;;;;;5052923;28;20213;-79
2021/12/18 03:31:01;;;;;;;57.63;13.23;;;;;;;;;;5053243;28;20283;-80
2021/12/18 03:33:28;;;;;;;89.10;14.47;;;;;;;;;;5052619;28;20214;-79
2021/12/18 03:35:56;;;;;;;35.77;12.33;;;;;;;;;;5052747;28;20205;-79
2021/12/18 03:38:23;;;;;;;33.43;12.43;;;;;;;;;;5053883;28;20202;-78
2021/12/18 03:40:50;;;;;;;51.03;13.87;;;;;;;;;;5054084;28;20202;-78
2021/12/18 03:43:19;;;;;;;28.30;12.67;;;;;;;;;;5053245;28;20202;-78
2021/12/18 03:45:46;;;;;;;62.80;15.73;;;;;;;;;;5053091;28;20225;-79
2021/12/18 03:48:13;;;;;;;42.60;14.33;;;;;;;;;;5053678;28;20633;-79
2021/12/18 03:50:40;;;;;;;56.07;14.60;;;;;;;;;;5053178;28;20241;-79
2021/12/18 03:53:07;;;;;;;44.00;14.20;;;;;;;;;;5053313;28;20207;-78
2021/12/18 03:55:34;;;;;;;41.70;13.33;;;;;;;;;;5053530;28;20234;-78
2021/12/18 03:58:01;;;;;;;63.00;15.53;;;;;;;;;;5053176;28;20241;-78
2021/12/18 04:00:29;;;;;;;53.67;15.30;;;;;;;;;;5052453;28;20234;-79
2021/12/18 04:02:56;;;;;;;59.00;13.47;;;;;;;;;;5053183;28;20213;-79
2021/12/18 04:05:23;;;;;;;46.00;14.03;;;;;;;;;;5052614;28;20241;-77
2021/12/18 04:07:51;;;;;;;57.00;15.63;;;;;;;;;;5054575;28;20229;-78
2021/12/18 04:10:19;;;;;;;57.37;15.23;;;;;;;;;;5053413;28;20230;-78
2021/12/18 04:12:48;;;;;;;48.67;14.97;;;;;;;;;;5053380;28;20226;-78
2021/12/18 04:15:16;;;;;;;54.70;15.73;;;;;;;;;;5051952;28;20225;-79
2021/12/18 04:17:44;;;;;;;106.57;18.03;;;;;;;;;;5060434;28;20247;-79
2021/12/18 04:20:12;;;;;;;42.67;14.97;;;;;;;;;;5055099;28;20379;-80
2021/12/18 04:22:39;;;;;;;52.57;15.73;;;;;;;;;;5056785;28;20209;-79
2021/12/18 04:25:07;;;;;;;43.37;14.63;;;;;;;;;;5053656;28;20237;-80
2021/12/18 04:27:34;;;;;;;52.97;16.33;;;;;;;;;;5054013;28;20775;-79
2021/12/18 04:30:01;;;;;;;46.17;14.90;;;;;;;;;;5052279;28;20240;-79
2021/12/18 04:32:28;;;;;;;49.73;16.53;;;;;;;;;;5055199;28;20225;-79
2021/12/18 04:34:56;;;;;;;45.13;15.93;;;;;;;;;;5054762;28;20242;-80
2021/12/18 04:37:24;;;;;;;49.77;16.27;;;;;;;;;;5053357;28;20229;-79
2021/12/18 04:39:51;;;;;;;48.60;16.40;;;;;;;;;;5052061;28;20269;-79
2021/12/18 04:42:18;;;;;;;66.27;17.30;;;;;;;;;;5052464;28;20202;-78
2021/12/18 04:44:45;;;;;;;54.43;16.53;;;;;;;;;;5055905;28;20244;-80
2021/12/18 04:47:12;;;;;;;51.97;15.60;;;;;;;;;;5054094;28;20226;-79
2021/12/18 04:49:39;;;;;;;49.23;15.27;;;;;;;;;;5053228;28;20241;-78
2021/12/18 04:52:08;;;;;;;34.93;13.87;;;;;;;;;;5051721;28;20628;-78
2021/12/18 04:54:35;;;;;;;49.67;16.47;;;;;;;;;;5051799;28;20652;-79
2021/12/18 04:57:02;;;;;;;42.83;15.73;;;;;;;;;;5051881;28;20229;-78
2021/12/18 04:59:29;;;;;;;35.77;15.87;;;;;;;;;;5053756;28;20230;-79
2021/12/18 05:01:57;;;;;;;37.33;15.30;;;;;;;;;;5056630;28;20218;-79
2021/12/18 05:04:24;;;;;;;33.83;14.73;;;;;;;;;;5058242;28;20667;-78
2021/12/18 05:06:53;;;;;;;33.83;16.17;;;;;;;;;;5059217;28;20234;-78
2021/12/18 05:09:21;;;;;;;33.43;14.33;;;;;;;;;;5057347;28;20589;-79
2021/12/18 05:11:48;;;;;;;44.83;16.20;;;;;;;;;;5057744;28;20226;-79
2021/12/18 05:14:16;;;;;;;47.73;15.87;;;;;;;;;;5056286;28;20230;-79
2021/12/18 05:16:43;;;;;;;44.33;15.10;;;;;;;;;;5057797;28;20222;-79
2021/12/18 05:19:10;;;;;;;32.43;15.00;;;;;;;;;;5058978;28;20603;-80
2021/12/18 05:21:37;;;;;;;34.10;15.17;;;;;;;;;;5056102;28;20206;-78
2021/12/18 05:24:04;;;;;;;35.63;15.60;;;;;;;;;;5057535;28;20249;-79
2021/12/18 05:26:33;;;;;;;43.57;16.37;;;;;;;;;;5058254;28;20226;-78
2021/12/18 05:29:00;;;;;;;33.80;14.37;;;;;;;;;;5057374;28;20237;-78
2021/12/18 05:31:27;;;;;;;32.47;14.63;;;;;;;;;;5056492;28;20206;-78
2021/12/18 05:33:58;;;;;;;34.80;14.73;;;;;;;;;;5054351;28;20229;-78
2021/12/18 05:36:33;;;;;;;34.10;15.50;;;;;;;;;;5054876;28;20313;-78
2021/12/18 05:39:01;;;;;;;38.93;15.33;;;;;;;;;;5056523;28;20226;-79
2021/12/18 05:41:28;;;;;;;30.43;14.57;;;;;;;;;;5055153;28;20202;-79
2021/12/18 05:43:57;;;;;;;31.83;14.07;;;;;;;;;;5054766;28;20245;-79
2021/12/18 05:46:24;;;;;;;43.27;16.30;;;;;;;;;;5054960;28;20226;-79
2021/12/18 05:48:51;;;;;;;37.10;15.40;;;;;;;;;;5055255;28;20234;-79
2021/12/18 05:51:18;;;;;;;31.90;14.53;;;;;;;;;;5054557;28;20673;-77
2021/12/18 05:53:45;;;;;;;39.10;15.37;;;;;;;;;;5053814;28;20246;-80
2021/12/18 05:56:12;;;;;;;37.97;14.37;;;;;;;;;;5054433;28;20233;-79
2021/12/18 05:58:41;;;;;;;28.33;14.20;;;;;;;;;;5054228;28;20206;-79
2021/12/18 06:01:09;;;;;;;30.90;14.30;;;;;;;;;;5054602;28;20233;-79
2021/12/18 06:03:36;;;;;;;28.30;14.13;;;;;;;;;;5053753;28;20202;-79
2021/12/18 06:06:03;;;;;;;29.50;13.63;;;;;;;;;;5055561;28;20220;-80
2021/12/18 06:08:32;;;;;;;28.93;13.40;;;;;;;;;;5055031;28;20197;-79
2021/12/18 06:11:04;;;;;;;29.73;14.27;;;;;;;;;;5057048;28;20213;-80
2021/12/18 06:13:31;;;;;;;27.50;13.67;;;;;;;;;;5056663;28;20222;-79
2021/12/18 06:15:58;;;;;;;29.27;13.33;;;;;;;;;;5056625;28;20259;-79
2021/12/18 06:18:27;;;;;;;23.33;13.57;;;;;;;;;;5055462;28;20209;-80
2021/12/18 06:20:54;;;;;;;27.30;13.10;;;;;;;;;;5057311;28;20210;-81
2021/12/18 06:23:21;;;;;;;24.87;13.87;;;;;;;;;;5060418;28;20214;-80
2021/12/18 06:25:48;;;;;;;22.43;11.93;;;;;;;;;;5060491;28;20213;-80
2021/12/18 06:28:15;;;;;;;20.80;11.53;;;;;;;;;;5061560;28;20229;-79
2021/12/18 06:30:42;;;;;;;22.73;12.53;;;;;;;;;;5054973;28;20650;-79
2021/12/18 06:33:09;;;;;;;21.30;11.47;;;;;;;;;;5058145;28;20230;-79
2021/12/18 06:35:37;;;;;;;25.23;13.07;;;;;;;;;;5055280;28;20247;-80
2021/12/18 06:38:04;;;;;;;24.43;12.47;;;;;;;;;;5055298;28;20234;-77
2021/12/18 06:40:32;;;;;;;22.03;11.20;;;;;;;;;;5054324;28;20233;-79
2021/12/18 06:42:59;;;;;;;24.53;12.03;;;;;;;;;;5056180;28;20202;-80
2021/12/18 06:45:26;;;;;;;22.33;12.33;;;;;;;;;;5055357;28;20601;-79
2021/12/18 06:47:54;;;;;;;27.10;13.10;;;;;;;;;;5055975;28;20717;-79
2021/12/18 06:50:21;;;;;;;32.00;13.80;;;;;;;;;;5056194;28;20245;-81
2021/12/18 06:52:49;;;;;;;25.40;12.43;;;;;;;;;;5061756;28;20241;-80
2021/12/18 06:55:17;;;;;;;25.03;12.43;;;;;;;;;;5062232;28;20269;-79
2021/12/18 06:57:44;;;;;;;26.60;12.60;;;;;;;;;;5063308;28;20226;-79
2021/12/18 07:00:14;;;;;;;21.77;12.83;;;;;;;;;;5056331;28;20229;-80
2021/12/18 07:02:42;;;;;;;25.37;12.73;;;;;;;;;;5054994;28;20693;-80
2021/12/18 07:05:09;;;;;;;27.27;13.33;;;;;;;;;;5053286;28;20248;-77
2021/12/18 07:07:37;;;;;;;21.67;12.70;;;;;;;;;;5052701;28;20245;-77
2021/12/18 07:10:06;;;;;;;25.37;12.37;;;;;;;;;;5052477;28;20285;-77
2021/12/18 07:12:34;;;;;;;22.17;11.80;;;;;;;;;;5052785;28;20226;-78
2021/12/18 07:15:01;;;;;;;20.40;11.47;;;;;;;;;;5052191;28;20722;-78
2021/12/18 07:17:28;;;;;;;18.93;11.67;;;;;;;;;;5052819;28;20632;-76
2021/12/18 07:19:55;;;;;;;21.47;11.60;;;;;;;;;;5052380;28;20241;-78
2021/12/18 07:22:22;;;;;;;17.70;11.53;;;;;;;;;;5052487;28;20216;-77
2021/12/18 07:24:49;;;;;;;18.40;12.10;;;;;;;;;;5051450;28;20238;-79
2021/12/18 07:27:18;;;;;;;17.53;11.03;;;;;;;;;;5052447;28;20242;-77
2021/12/18 07:29:45;;;;;;;22.67;11.40;;;;;;;;;;5052018;28;20717;-77
2021/12/18 07:32:12;;;;;;;20.83;11.63;;;;;;;;;;5051963;28;20230;-77
2021/12/18 07:34:39;;;;;;;20.00;11.80;;;;;;;;;;5052028;28;20244;-77
2021/12/18 07:37:06;;;;;;;17.40;11.17;;;;;;;;;;5052317;28;20236;-75
2021/12/18 07:39:33;;;;;;;23.23;12.30;;;;;;;;;;5051957;28;20238;-74
2021/12/18 07:42:01;;;;;;;16.73;10.97;;;;;;;;;;5051941;28;20206;-74
2021/12/18 07:44:29;;;;;;;20.67;11.77;;;;;;;;;;5051680;28;20233;-74
2021/12/18 07:46:56;;;;;;;21.70;12.00;;;;;;;;;;5052372;28;20646;-76
2021/12/18 07:49:23;;;;;;;22.47;12.30;;;;;;;;;;5051823;28;20282;-74
2021/12/18 07:51:54;;;;;;;20.93;11.37;;;;;;;;;;5052099;28;20213;-74
2021/12/18 07:54:21;;;;;;;18.00;10.87;;;;;;;;;;5051349;28;20705;-75
2021/12/18 07:56:48;;;;;;;20.23;11.57;;;;;;;;;;5052157;28;20225;-74
2021/12/18 07:59:15;;;;;;;17.13;11.50;;;;;;;;;;5051374;28;20642;-75
2021/12/18 08:01:44;;;;;;;19.27;12.00;;;;;;;;;;5052098;28;20205;-77
2021/12/18 08:04:11;;;;;;;18.90;12.27;;;;;;;;;;5051320;28;20710;-77
2021/12/18 08:06:38;;;;;;;22.20;12.60;;;;;;;;;;5051715;28;20733;-76
2021/12/18 08:09:05;;;;;;;24.50;12.03;;;;;;;;;;5051215;28;20234;-76
2021/12/18 08:11:32;;;;;;;22.60;12.37;;;;;;;;;;5051989;28;20206;-75
2021/12/18 08:13:59;;;;;;;24.03;13.83;;;;;;;;;;5051656;28;20226;-76
2021/12/18 08:16:26;;;;;;;20.40;12.47;;;;;;;;;;5051851;28;20242;-74
2021/12/18 08:18:54;;;;;;;21.33;12.97;;;;;;;;;;5051496;28;20705;-76
2021/12/18 08:21:21;;;;;;;23.37;12.80;;;;;;;;;;5051578;28;20210;-76
2021/12/18 08:23:49;;;;;;;24.27;13.70;;;;;;;;;;5051367;28;20230;-75
2021/12/18 08:26:16;;;;;;;19.53;12.03;;;;;;;;;;5051415;28;20969;-75
2021/12/18 08:28:43;;;;;;;21.07;13.13;;;;;;;;;;5051420;28;20287;-75
2021/12/18 08:31:10;;;;;;;22.90;12.60;;;;;;;;;;5051634;28;20255;-75
2021/12/18 08:33:37;;;;;;;21.37;12.33;;;;;;;;;;5050926;28;20321;-75
2021/12/18 08:36:06;;;;;;;25.30;12.43;;;;;;;;;;5055297;28;20210;-75
2021/12/18 08:38:33;;;;;;;23.17;13.17;;;;;;;;;;5055542;28;20194;-75
2021/12/18 08:41:00;;;;;;;25.30;13.00;;;;;;;;;;5055762;28;20210;-75
2021/12/18 08:43:27;;;;;;;21.93;13.17;;;;;;;;;;5055176;28;20213;-75
2021/12/18 08:45:54;;;;;;;24.37;14.13;;;;;;;;;;5055510;28;20209;-75
2021/12/18 08:48:21;;;;;;;26.37;13.70;;;;;;;;;;5054805;28;20210;-75
2021/12/18 08:50:49;;;;;;;27.53;16.07;;;;;;;;;;5055260;28;20309;-75
2021/12/18 08:53:17;;;;;;;23.30;13.30;;;;;;;;;;5054969;28;20448;-76
2021/12/18 08:55:45;;;;;;;25.40;14.33;;;;;;;;;;5054767;28;20237;-75
2021/12/18 08:58:12;;;;;;;29.83;13.60;;;;;;;;;;5054945;28;20225;-76
2021/12/18 09:00:40;;;;;;;25.73;13.73;;;;;;;;;;5054892;28;20241;-75
2021/12/18 09:03:07;;;;;;;25.60;15.10;;;;;;;;;;5055006;28;20674;-76
2021/12/18 09:05:34;;;;;;;25.43;14.27;;;;;;;;;;5054614;28;20230;-75
2021/12/18 09:08:01;;;;;;;24.73;14.07;;;;;;;;;;5056762;22;20254;-82
2021/12/18 09:10:30;;;;;;;27.73;15.13;;;;;;;;;;5037768;28;20260;-82
2021/12/18 09:12:57;;;;;;;24.93;14.00;;;;;;;;;;5037870;28;20234;-82
2021/12/18 09:15:24;;;;;;;27.43;14.30;;;;;;;;;;5038028;28;20248;-85
2021/12/18 09:17:51;;;;;;;31.43;15.20;;;;;;;;;;5035136;28;20234;-85
2021/12/18 09:20:19;;;;;;;29.67;14.33;;;;;;;;;;5034058;28;20239;-85
2021/12/18 09:22:46;;;;;;;31.67;15.40;;;;;;;;;;5034614;28;20210;-85
2021/12/18 09:25:13;;;;;;;26.57;15.57;;;;;;;;;;5034307;28;20246;-84
2021/12/18 09:27:42;;;;;;;26.87;15.23;;;;;;;;;;5035251;28;20226;-86
2021/12/18 09:30:11;;;;;;;28.73;15.13;;;;;;;;;;5034686;28;20245;-83
2021/12/18 09:32:38;;;;;;;25.37;14.80;;;;;;;;;;5035440;28;20211;-84
2021/12/18 09:35:06;;;;;;;32.67;15.33;;;;;;;;;;5035631;28;20615;-84
2021/12/18 09:37:33;;;;;;;30.90;15.10;;;;;;;;;;5035659;28;20633;-84
2021/12/18 09:40:00;;;;;;;25.77;15.33;;;;;;;;;;5036108;28;20234;-84
2021/12/18 09:42:27;;;;;;;31.67;16.00;;;;;;;;;;5037418;28;20643;-84
2021/12/18 09:44:55;;;;;;;27.87;15.53;;;;;;;;;;5036386;28;20238;-85
2021/12/18 09:47:22;;;;;;;30.40;16.43;;;;;;;;;;5037359;28;20238;-84
2021/12/18 09:49:49;;;;;;;30.37;17.40;;;;;;;;;;5036386;28;20249;-85
2021/12/18 09:52:17;;;;;;;30.30;17.07;;;;;;;;;;5037878;28;20214;-84
2021/12/18 09:54:44;;;;;;;30.50;16.87;;;;;;;;;;5037855;28;20244;-85
2021/12/18 09:57:11;;;;;;;33.10;16.77;;;;;;;;;;5038149;28;20231;-85
2021/12/18 09:59:38;;;;;;;31.37;16.80;;;;;;;;;;5038147;28;20238;-84
2021/12/18 10:02:08;;;;;;;33.53;16.33;;;;;;;;;;5038535;28;20203;-84
2021/12/18 10:04:36;;;;;;;28.17;15.67;;;;;;;;;;5038354;28;20237;-83
2021/12/18 10:07:15;;;;;;;33.23;17.47;;;;;;;;;;5038044;28;20238;-83
2021/12/18 10:09:42;;;;;;;30.07;16.90;;;;;;;;;;5033188;28;20714;-83
2021/12/18 10:12:19;;;;;;;33.10;18.27;;;;;;;;;;5035406;28;20206;-83
2021/12/18 10:14:48;;;;;;;35.37;17.83;;;;;;;;;;5038141;28;20243;-82
2021/12/18 10:17:27;;;;;;;30.57;16.97;;;;;;;;;;5037776;28;20234;-82
2021/12/18 10:19:55;;;;;;;35.37;18.27;;;;;;;;;;5038209;28;20234;-82
2021/12/18 10:22:22;;;;;;;36.27;19.70;;;;;;;;;;5039213;28;20227;-82
2021/12/18 10:25:02;;;;;;;33.23;17.77;;;;;;;;;;5038996;28;20243;-82
2021/12/18 10:27:29;;;;;;;36.03;19.13;;;;;;;;;;5038267;28;20230;-82
2021/12/18 10:29:56;;;;;;;33.93;18.40;;;;;;;;;;5038529;28;20284;-83
2021/12/18 10:32:25;;;;;;;36.27;18.93;;;;;;;;;;5038005;28;20251;-82
2021/12/18 10:34:54;;;;;;;38.13;19.33;;;;;;;;;;5038056;28;20318;-82
2021/12/18 10:37:22;;;;;;;41.23;20.57;;;;;;;;;;5036675;28;20279;-82
2021/12/18 10:40:07;;;;;;;44.00;22.20;;;;;;;;;;5037265;28;20234;-82
2021/12/18 10:42:36;;;;;;;35.73;19.33;;;;;;;;;;5035586;28;20223;-82
2021/12/18 10:45:09;;;;;;;34.17;20.10;;;;;;;;;;5037403;28;20616;-82
2021/12/18 10:48:01;;;;;;;33.73;18.47;;;;;;;;;;5037865;28;20236;-82
2021/12/18 10:50:31;;;;;;;36.13;19.70;;;;;;;;;;5035278;28;20325;-82
2021/12/18 10:52:59;;;;;;;35.60;19.23;;;;;;;;;;5037470;28;20204;-82
2021/12/18 10:55:44;;;;;;;36.77;20.17;;;;;;;;;;5036821;28;20707;-82
2021/12/18 10:58:12;;;;;;;36.03;19.40;;;;;;;;;;5036211;28;20238;-82
2021/12/18 11:00:42;;;;;;;34.83;19.83;;;;;;;;;;5035152;28;20232;-82
2021/12/18 11:03:36;;;;;;;30.17;17.40;;;;;;;;;;5037734;28;20202;-82
2021/12/18 11:06:09;;;;;;;31.20;17.03;;;;;;;;;;4999379;28;20236;-82
2021/12/18 11:08:38;;;;;;;32.37;18.23;;;;;;;;;;5036458;28;20248;-82
2021/12/18 11:13:48;;;;;;;28.60;17.83;;;;;;;;;;5038419;28;20282;-82
2021/12/18 11:16:15;;;;;;;26.07;16.43;;;;;;;;;;5038753;28;20331;-82
2021/12/18 11:18:43;;;;;;;27.17;15.97;;;;;;;;;;5037961;28;20625;-82
2021/12/18 11:21:11;;;;;;;30.13;16.47;;;;;;;;;;5038601;28;20214;-83
2021/12/18 11:23:40;;;;;;;24.73;16.07;;;;;;;;;;5037970;28;20210;-82
2021/12/18 11:26:08;;;;;;;27.33;17.30;;;;;;;;;;5035203;28;20217;-82
2021/12/18 11:28:35;;;;;;;27.13;15.73;;;;;;;;;;5037890;28;20659;-83
2021/12/18 11:31:03;;;;;;;31.13;17.67;;;;;;;;;;5038855;28;20771;-82
2021/12/18 11:33:31;;;;;;;21.30;13.83;;;;;;;;;;5037713;28;20232;-83
2021/12/18 11:35:59;;;;;;;23.50;15.73;;;;;;;;;;5038819;28;20222;-82
2021/12/18 11:38:28;;;;;;;23.90;15.17;;;;;;;;;;5037906;28;20742;-82
2021/12/18 11:40:55;;;;;;;23.37;14.70;;;;;;;;;;5033408;28;20217;-82
2021/12/18 11:43:34;;;;;;;24.93;15.87;;;;;;;;;;5034322;28;20222;-82
2021/12/18 11:46:01;;;;;;;23.73;14.90;;;;;;;;;;5037503;28;20216;-82
2021/12/18 11:48:28;;;;;;;22.10;14.37;;;;;;;;;;5039025;28;20233;-83
2021/12/18 11:50:55;;;;;;;20.97;13.67;;;;;;;;;;5040082;28;20228;-83
2021/12/18 11:53:33;;;;;;;20.57;13.70;;;;;;;;;;5042584;28;20211;-84
2021/12/18 11:56:02;;;;;;;19.23;12.77;;;;;;;;;;5034658;28;20209;-85
2021/12/18 11:58:30;;;;;;;21.23;13.67;;;;;;;;;;5031470;28;20718;-85
2021/12/18 12:00:59;;;;;;;19.60;13.50;;;;;;;;;;5031985;28;20201;-85
2021/12/18 12:03:32;;;;;;;21.20;13.70;;;;;;;;;;5031612;28;20214;-85
2021/12/18 12:06:01;;;;;;;24.63;15.77;;;;;;;;;;5031937;28;20198;-85
2021/12/18 12:08:32;;;;;;;21.57;13.93;;;;;;;;;;5032999;28;20231;-83
2021/12/18 12:11:21;;;;;;;22.10;14.77;;;;;;;;;;5037831;28;20580;-83
2021/12/18 12:13:52;;;;;;;21.07;14.03;;;;;;;;;;5038259;28;20263;-83
2021/12/18 12:16:19;;;;;;;26.40;15.03;;;;;;;;;;5030202;28;20675;-83
2021/12/18 12:19:05;;;;;;;20.50;14.10;;;;;;;;;;5036629;28;20232;-84
2021/12/18 12:21:39;;;;;;;21.03;13.57;;;;;;;;;;5037997;28;20214;-84
2021/12/18 12:24:07;;;;;;;21.37;14.20;;;;;;;;;;5038953;28;20237;-83
2021/12/18 12:26:36;;;;;;;18.30;13.20;;;;;;;;;;5040126;28;20213;-83
2021/12/18 12:29:03;;;;;;;19.07;13.00;;;;;;;;;;5038803;28;20597;-84
2021/12/18 12:31:31;;;;;;;16.93;12.47;;;;;;;;;;5039515;28;20215;-84
2021/12/18 12:34:12;;;;;;;18.70;12.53;;;;;;;;;;5039230;28;20244;-84
2021/12/18 12:36:45;;;;;;;20.60;13.27;;;;;;;;;;5039233;28;20229;-84
2021/12/18 12:39:12;;;;;;;20.43;13.70;;;;;;;;;;5038040;28;20647;-83
2021/12/18 12:41:41;;;;;;;23.80;14.13;;;;;;;;;;5039477;28;20565;-84
2021/12/18 12:44:16;;;;;;;23.07;14.60;;;;;;;;;;5038775;28;20261;-84
2021/12/18 12:46:43;;;;;;;21.57;13.97;;;;;;;;;;5040108;28;20847;-84
2021/12/18 12:49:11;;;;;;;20.30;13.50;;;;;;;;;;5039069;28;20239;-84
2021/12/18 12:51:58;;;;;;;21.97;13.93;;;;;;;;;;5039815;28;20213;-84
2021/12/18 12:54:58;;;;;;;19.33;12.60;;;;;;;;;;5038710;28;20260;-84
2021/12/18 12:57:53;;;;;;;18.37;12.47;;;;;;;;;;5039285;28;20312;-83
2021/12/18 13:00:46;;;;;;;19.13;12.70;;;;;;;;;;5038697;28;20238;-84
2021/12/18 13:03:18;;;;;;;20.33;13.33;;;;;;;;;;5039760;28;20217;-83
2021/12/18 13:05:47;;;;;;;20.03;13.53;;;;;;;;;;5038779;28;20305;-84
2021/12/18 13:08:14;;;;;;;19.47;13.47;;;;;;;;;;5041757;28;20229;-84
2021/12/18 13:10:42;;;;;;;20.70;13.40;;;;;;;;;;5038932;28;20245;-83
2021/12/18 13:13:10;;;;;;;21.67;14.30;;;;;;;;;;5032879;28;20663;-83
2021/12/18 13:15:46;;;;;;;22.70;14.57;;;;;;;;;;5038227;28;20256;-84
2021/12/18 13:18:13;;;;;;;21.80;13.87;;;;;;;;;;5038971;28;20229;-84
2021/12/18 13:20:46;;;;;;;18.93;13.60;;;;;;;;;;5038344;28;20236;-83
2021/12/18 13:23:17;;;;;;;20.57;14.17;;;;;;;;;;5041709;28;20240;-84
2021/12/18 13:25:49;;;;;;;22.10;14.37;;;;;;;;;;5042727;28;20693;-83
2021/12/18 13:28:16;;;;;;;20.80;14.20;;;;;;;;;;5042076;28;20643;-83
2021/12/18 13:30:43;;;;;;;22.03;14.40;;;;;;;;;;5040873;28;20244;-84
2021/12/18 13:33:11;;;;;;;20.90;14.63;;;;;;;;;;5040593;28;20233;-84
2021/12/18 13:35:39;;;;;;;23.20;15.33;;;;;;;;;;5040903;28;20248;-83
2021/12/18 13:38:09;;;;;;;22.50;15.03;;;;;;;;;;5041718;28;20234;-84
2021/12/18 13:40:37;;;;;;;24.80;15.43;;;;;;;;;;5040847;28;20257;-83
2021/12/18 13:43:05;;;;;;;20.13;14.40;;;;;;;;;;5041598;28;20213;-83
2021/12/18 13:45:32;;;;;;;22.40;14.77;;;;;;;;;;5040545;28;20265;-83
2021/12/18 13:48:02;;;;;;;20.97;14.00;;;;;;;;;;5041582;28;20222;-83
2021/12/18 13:50:30;;;;;;;21.07;14.63;;;;;;;;;;5041232;28;20246;-83
2021/12/18 13:52:58;;;;;;;22.53;14.70;;;;;;;;;;5041289;28;20217;-83
2021/12/18 13:55:31;;;;;;;22.87;13.87;;;;;;;;;;5040646;28;20235;-84
2021/12/18 13:57:59;;;;;;;21.87;14.90;;;;;;;;;;5042144;28;20225;-84
2021/12/18 14:00:26;;;;;;;21.80;14.40;;;;;;;;;;5039604;28;20253;-83
2021/12/18 14:02:53;;;;;;;25.20;14.60;;;;;;;;;;5041316;28;20213;-83
2021/12/18 14:05:21;;;;;;;21.63;14.73;;;;;;;;;;5040223;28;20238;-83
2021/12/18 14:07:48;;;;;;;20.20;14.33;;;;;;;;;;5040632;28;20318;-83
2021/12/18 14:10:15;;;;;;;21.13;14.10;;;;;;;;;;5034499;28;20249;-83
2021/12/18 14:12:43;;;;;;;20.47;13.80;;;;;;;;;;5033044;28;20211;-84
2021/12/18 14:15:18;;;;;;;21.23;14.33;;;;;;;;;;5032565;28;20242;-84
2021/12/18 14:17:45;;;;;;;23.73;14.50;;;;;;;;;;5033574;28;20264;-83
2021/12/18 14:20:13;;;;;;;22.47;14.63;;;;;;;;;;5032909;28;20263;-84
2021/12/18 14:22:41;;;;;;;22.60;14.90;;;;;;;;;;5035355;28;20587;-83
2021/12/18 14:25:11;;;;;;;21.27;13.80;;;;;;;;;;5034047;28;20234;-83
2021/12/18 14:27:39;;;;;;;22.83;15.00;;;;;;;;;;5034884;28;20237;-83
2021/12/18 14:30:14;;;;;;;25.20;14.97;;;;;;;;;;5035630;28;20245;-83
2021/12/18 14:32:42;;;;;;;24.40;15.80;;;;;;;;;;5034334;28;20688;-83
2021/12/18 14:35:10;;;;;;;22.10;15.03;;;;;;;;;;5034216;28;20248;-84
2021/12/18 14:37:47;;;;;;;21.20;14.17;;;;;;;;;;5035813;28;20230;-83
2021/12/18 14:40:16;;;;;;;23.03;14.60;;;;;;;;;;5033500;28;20808;-83
2021/12/18 14:42:54;;;;;;;22.93;14.60;;;;;;;;;;5034673;28;20237;-83
2021/12/18 14:45:24;;;;;;;25.57;15.60;;;;;;;;;;5032856;28;20272;-84
2021/12/18 14:47:52;;;;;;;24.07;14.10;;;;;;;;;;5033771;28;20226;-84
2021/12/18 14:50:20;;;;;;;21.60;15.03;;;;;;;;;;5034074;28;20291;-84
2021/12/18 14:53:12;;;;;;;21.97;14.70;;;;;;;;;;5037787;28;20206;-83
2021/12/18 14:55:40;;;;;;;24.40;15.60;;;;;;;;;;5034480;28;20682;-83
2021/12/18 14:58:08;;;;;;;26.17;15.90;;;;;;;;;;5035802;28;20230;-84
2021/12/18 15:00:43;;;;;;;25.20;16.30;;;;;;;;;;5033282;28;20283;-86